Time;durP1;ratioP1;P1;durP2;ratioP2;P2;SDS_P1;SDS_P2;PMS_P1;PMS_P2;Temp;Humidity;BMP_temperature;BMP_pressure;BME280_temperature;BME280_humidity;BME280_pressure;Samples;Min_cycle;Max_cycle;Signal;HPM_P1;HPM_P2
2023/11/30 00:14:40;;;;;;;4.57;2.30;;;;;;;;;;6239099;22;20584;-83
2023/11/30 00:26:39;;;;;;;7.15;1.88;;;;;;;;;;6201507;23;20011;-82
2023/11/30 00:29:09;;;;;;;4.97;1.92;;;;;;;;;;6217619;23;20123;-82
2023/11/30 00:31:35;;;;;;;4.53;1.50;;;;;;;;;;6191188;23;20015;-82
2023/11/30 00:34:01;;;;;;;3.70;2.00;;;;;;;;;;6217329;23;20011;-83
2023/11/30 00:36:27;;;;;;;3.45;1.60;;;;;;;;;;6190292;23;20013;-82
2023/11/30 00:38:53;;;;;;;8.82;2.08;;;;;;;;;;6215243;23;20005;-82
2023/11/30 00:41:19;;;;;;;12.52;2.65;;;;;;;;;;6190255;23;20098;-82
2023/11/30 00:43:46;;;;;;;3.15;1.80;;;;;;;;;;6215780;23;20008;-82
2023/11/30 00:46:16;;;;;;;3.75;2.17;;;;;;;;;;6215639;23;20016;-82
2023/11/30 00:48:46;;;;;;;7.80;1.73;;;;;;;;;;6216871;23;20496;-82
2023/11/30 00:51:12;;;;;;;9.15;2.25;;;;;;;;;;6217371;23;20032;-82
2023/11/30 00:53:38;;;;;;;5.88;2.90;;;;;;;;;;6215589;23;20012;-82
2023/11/30 00:56:05;;;;;;;6.35;2.08;;;;;;;;;;6217225;23;20008;-82
2023/11/30 00:58:31;;;;;;;8.20;2.75;;;;;;;;;;6215445;23;20051;-82
2023/11/30 01:00:57;;;;;;;4.13;2.22;;;;;;;;;;6214951;23;20017;-81
2023/11/30 01:03:23;;;;;;;3.70;1.55;;;;;;;;;;6217030;23;20080;-82
2023/11/30 01:05:49;;;;;;;10.85;3.00;;;;;;;;;;6218606;23;20004;-81
2023/11/30 01:08:15;;;;;;;5.35;1.83;;;;;;;;;;6216926;23;20031;-82
2023/11/30 01:10:43;;;;;;;5.78;2.35;;;;;;;;;;6216378;23;20015;-82
2023/11/30 01:13:09;;;;;;;9.48;4.45;;;;;;;;;;6217001;23;20044;-83
2023/11/30 01:15:36;;;;;;;6.35;3.10;;;;;;;;;;6218444;23;20051;-82
2023/11/30 01:18:04;;;;;;;6.25;3.33;;;;;;;;;;6218016;23;20019;-82
2023/11/30 01:20:31;;;;;;;5.40;2.78;;;;;;;;;;6191186;23;20005;-82
2023/11/30 01:22:57;;;;;;;10.07;4.78;;;;;;;;;;6191369;23;20012;-82
2023/11/30 01:25:23;;;;;;;4.70;2.55;;;;;;;;;;6191722;23;20023;-82
2023/11/30 01:27:50;;;;;;;4.90;2.15;;;;;;;;;;6191155;23;20352;-82
2023/11/30 01:30:16;;;;;;;13.75;3.05;;;;;;;;;;6190892;23;20088;-82
2023/11/30 01:32:42;;;;;;;9.90;2.80;;;;;;;;;;6218391;23;20038;-82
2023/11/30 01:35:09;;;;;;;6.38;2.30;;;;;;;;;;6191802;23;20047;-82
2023/11/30 01:37:34;;;;;;;6.07;2.65;;;;;;;;;;6218651;23;20028;-83
2023/11/30 01:40:00;;;;;;;4.78;1.90;;;;;;;;;;6191767;23;20001;-82
2023/11/30 01:42:28;;;;;;;5.88;3.33;;;;;;;;;;6191660;23;20055;-83
2023/11/30 01:44:54;;;;;;;4.63;2.58;;;;;;;;;;6191632;23;20005;-83
2023/11/30 01:47:20;;;;;;;5.30;2.25;;;;;;;;;;6218058;23;20008;-82
2023/11/30 01:49:46;;;;;;;3.15;1.75;;;;;;;;;;6191694;23;20040;-82
2023/11/30 01:52:15;;;;;;;2.92;1.55;;;;;;;;;;6191871;23;20013;-83
2023/11/30 01:54:44;;;;;;;5.07;2.45;;;;;;;;;;6217986;23;20008;-82
2023/11/30 01:57:10;;;;;;;3.35;2.00;;;;;;;;;;6191437;23;20080;-82
2023/11/30 01:59:36;;;;;;;5.75;1.95;;;;;;;;;;6191487;23;20467;-83
2023/11/30 02:02:03;;;;;;;4.15;1.25;;;;;;;;;;6191517;23;20020;-82
2023/11/30 02:04:30;;;;;;;2.53;1.35;;;;;;;;;;6191000;23;20001;-82
2023/11/30 02:06:56;;;;;;;6.22;1.38;;;;;;;;;;6191013;23;20064;-82
2023/11/30 02:09:22;;;;;;;3.22;0.63;;;;;;;;;;6217566;23;20001;-82
2023/11/30 02:11:48;;;;;;;3.50;0.52;;;;;;;;;;6191084;23;20009;-83
2023/11/30 02:14:14;;;;;;;9.65;1.05;;;;;;;;;;6191298;23;20462;-82
2023/11/30 02:16:40;;;;;;;2.88;1.52;;;;;;;;;;6191397;23;20021;-82
2023/11/30 02:19:06;;;;;;;4.07;0.95;;;;;;;;;;6190594;23;20055;-83
2023/11/30 02:21:32;;;;;;;2.95;1.20;;;;;;;;;;6191147;23;20020;-82
2023/11/30 02:23:58;;;;;;;5.30;1.10;;;;;;;;;;6190632;23;20011;-83
2023/11/30 02:26:24;;;;;;;1.10;0.98;;;;;;;;;;6191521;23;20019;-82
2023/11/30 02:28:50;;;;;;;4.15;0.85;;;;;;;;;;6191313;23;20079;-82
2023/11/30 02:31:16;;;;;;;2.63;1.92;;;;;;;;;;6191238;23;20320;-83
2023/11/30 02:33:45;;;;;;;2.35;0.52;;;;;;;;;;6191378;23;20134;-82
2023/11/30 02:36:14;;;;;;;3.03;0.82;;;;;;;;;;6191492;23;20009;-84
2023/11/30 02:38:40;;;;;;;1.75;0.52;;;;;;;;;;6218205;23;20031;-83
2023/11/30 02:41:06;;;;;;;2.88;1.23;;;;;;;;;;6217940;23;20075;-82
2023/11/30 02:43:32;;;;;;;1.67;0.73;;;;;;;;;;6190818;23;20447;-83
2023/11/30 02:45:58;;;;;;;4.38;1.77;;;;;;;;;;6217612;23;20001;-82
2023/11/30 02:48:24;;;;;;;0.98;0.77;;;;;;;;;;6191117;23;20040;-82
2023/11/30 02:50:50;;;;;;;5.20;1.23;;;;;;;;;;6190964;23;20004;-82
2023/11/30 02:53:16;;;;;;;2.13;0.75;;;;;;;;;;6190569;23;20013;-82
2023/11/30 02:55:45;;;;;;;2.45;1.10;;;;;;;;;;6216804;23;20488;-82
2023/11/30 02:58:11;;;;;;;1.05;0.57;;;;;;;;;;6190623;23;20441;-82
2023/11/30 03:00:37;;;;;;;1.52;0.93;;;;;;;;;;6190205;23;20043;-82
2023/11/30 03:03:03;;;;;;;3.38;1.55;;;;;;;;;;6190693;23;20096;-82
2023/11/30 03:05:31;;;;;;;2.08;0.85;;;;;;;;;;6190154;23;20054;-82
2023/11/30 03:07:57;;;;;;;2.80;0.65;;;;;;;;;;6189855;23;20389;-82
2023/11/30 03:10:23;;;;;;;0.43;0.35;;;;;;;;;;6189424;23;20048;-82
2023/11/30 03:12:49;;;;;;;2.80;0.52;;;;;;;;;;6216978;23;20032;-82
2023/11/30 03:15:18;;;;;;;1.52;0.65;;;;;;;;;;6189456;23;20047;-83
2023/11/30 03:17:44;;;;;;;1.95;1.08;;;;;;;;;;6193143;23;20008;-82
2023/11/30 03:20:10;;;;;;;3.42;1.38;;;;;;;;;;6246324;23;20007;-82
2023/11/30 03:22:36;;;;;;;1.25;0.85;;;;;;;;;;6246763;23;20044;-82
2023/11/30 03:25:02;;;;;;;6.72;2.25;;;;;;;;;;6246499;23;20437;-83
2023/11/30 03:27:28;;;;;;;3.70;1.77;;;;;;;;;;6244975;23;20419;-82
2023/11/30 03:29:54;;;;;;;;;;;;;;;;;;6220230;23;20460;-82
2023/11/30 03:32:20;;;;;;;3.90;1.90;;;;;;;;;;6247138;23;19907;-82
2023/11/30 03:34:46;;;;;;;6.88;1.50;;;;;;;;;;6219842;23;20427;-82
2023/11/30 03:37:13;;;;;;;4.10;2.53;;;;;;;;;;6220192;23;20023;-82
2023/11/30 03:39:39;;;;;;;5.28;2.00;;;;;;;;;;6246052;23;20008;-82
2023/11/30 03:42:05;;;;;;;6.82;1.73;;;;;;;;;;6246433;23;20054;-82
2023/11/30 03:44:31;;;;;;;4.75;1.55;;;;;;;;;;6219833;23;20045;-82
2023/11/30 03:46:57;;;;;;;8.00;1.85;;;;;;;;;;6219379;23;20145;-82
2023/11/30 03:49:23;;;;;;;2.45;1.05;;;;;;;;;;6218937;23;20083;-82
2023/11/30 03:51:49;;;;;;;6.97;2.17;;;;;;;;;;6219582;23;20031;-83
2023/11/30 03:54:15;;;;;;;4.25;1.30;;;;;;;;;;6219305;23;20388;-82
2023/11/30 03:56:41;;;;;;;4.22;1.60;;;;;;;;;;6246022;23;20008;-83
2023/11/30 03:59:10;;;;;;;3.70;1.40;;;;;;;;;;6246297;23;20046;-82
2023/11/30 04:01:36;;;;;;;2.72;1.23;;;;;;;;;;6219249;23;20335;-82
2023/11/30 04:04:02;;;;;;;2.85;1.58;;;;;;;;;;6246220;23;20004;-82
2023/11/30 04:06:28;;;;;;;2.92;1.42;;;;;;;;;;6219675;23;20088;-82
2023/11/30 04:08:54;;;;;;;3.70;1.87;;;;;;;;;;6218452;23;20458;-82
2023/11/30 04:11:20;;;;;;;2.75;1.55;;;;;;;;;;6246254;23;20011;-83
2023/11/30 04:13:47;;;;;;;2.75;1.48;;;;;;;;;;6247139;23;20012;-83
2023/11/30 04:16:17;;;;;;;3.38;1.77;;;;;;;;;;6246644;23;20091;-82
2023/11/30 04:18:46;;;;;;;4.68;1.77;;;;;;;;;;6220148;23;20038;-82
2023/11/30 04:21:12;;;;;;;2.50;1.40;;;;;;;;;;6247239;23;20023;-82
2023/11/30 04:23:38;;;;;;;4.10;1.17;;;;;;;;;;6220930;23;20000;-83
2023/11/30 04:26:04;;;;;;;4.38;2.35;;;;;;;;;;6247070;23;20001;-83
2023/11/30 04:28:30;;;;;;;6.47;1.98;;;;;;;;;;6220701;23;20001;-83
2023/11/30 04:30:56;;;;;;;6.47;1.42;;;;;;;;;;6220752;23;20011;-83
2023/11/30 04:33:22;;;;;;;5.28;1.83;;;;;;;;;;6220492;23;20030;-83
2023/11/30 04:35:48;;;;;;;8.30;2.88;;;;;;;;;;6219883;23;20012;-82
2023/11/30 04:38:16;;;;;;;2.25;1.42;;;;;;;;;;6247182;23;20363;-83
2023/11/30 04:40:42;;;;;;;5.20;2.25;;;;;;;;;;6219807;23;20004;-82
2023/11/30 04:43:08;;;;;;;3.55;1.92;;;;;;;;;;6247511;23;20308;-83
2023/11/30 04:45:34;;;;;;;2.65;1.65;;;;;;;;;;6219800;23;20007;-82
2023/11/30 04:48:01;;;;;;;3.72;1.42;;;;;;;;;;6219463;23;20046;-82
2023/11/30 04:50:28;;;;;;;2.45;1.48;;;;;;;;;;6219212;23;20095;-82
2023/11/30 04:52:54;;;;;;;;;;;;;;;;;;6246533;23;20034;-82
2023/11/30 04:55:21;;;;;;;4.72;1.67;;;;;;;;;;6219025;23;19978;-82
2023/11/30 04:57:48;;;;;;;;;;;;;;;;;;6219402;23;20016;-82
2023/11/30 05:00:14;;;;;;;2.53;1.02;;;;;;;;;;6245075;23;19911;-82
2023/11/30 05:02:49;;;;;;;4.88;2.00;;;;;;;;;;6218260;23;20102;-82
2023/11/30 05:05:15;;;;;;;4.07;1.67;;;;;;;;;;6245019;23;20007;-82
2023/11/30 05:07:41;;;;;;;3.55;2.15;;;;;;;;;;6218237;23;20012;-82
2023/11/30 05:10:07;;;;;;;1.92;1.00;;;;;;;;;;6217692;23;20008;-82
2023/11/30 05:12:33;;;;;;;;;;;;;;;;;;6245928;23;20016;-82
2023/11/30 05:14:59;;;;;;;4.00;1.65;;;;;;;;;;6244786;23;19937;-82
2023/11/30 05:17:25;;;;;;;2.83;1.42;;;;;;;;;;6244929;23;20031;-82
2023/11/30 05:19:51;;;;;;;6.80;2.03;;;;;;;;;;6217477;23;20015;-82
2023/11/30 05:22:17;;;;;;;6.25;2.70;;;;;;;;;;6219080;23;20024;-83
2023/11/30 05:24:43;;;;;;;5.75;1.30;;;;;;;;;;6219474;23;20004;-83
2023/11/30 05:27:09;;;;;;;4.60;1.73;;;;;;;;;;6219633;23;20012;-83
2023/11/30 05:29:35;;;;;;;3.53;1.50;;;;;;;;;;6219388;23;20706;-83
2023/11/30 05:32:01;;;;;;;4.95;1.92;;;;;;;;;;6219350;23;20023;-83
2023/11/30 05:34:27;;;;;;;3.35;1.83;;;;;;;;;;6219544;23;20012;-83
2023/11/30 05:36:56;;;;;;;2.45;1.15;;;;;;;;;;6246365;23;20362;-83
2023/11/30 05:39:22;;;;;;;4.20;2.20;;;;;;;;;;6219785;23;20005;-83
2023/11/30 05:41:48;;;;;;;6.72;1.90;;;;;;;;;;6219633;23;20019;-83
2023/11/30 05:44:14;;;;;;;6.13;3.25;;;;;;;;;;6219556;23;20004;-83
2023/11/30 05:46:40;;;;;;;;;;;;;;;;;;6220064;23;20134;-83
2023/11/30 05:49:06;;;;;;;6.65;1.67;;;;;;;;;;6220105;23;19903;-83
2023/11/30 05:51:32;;;;;;;4.18;2.13;;;;;;;;;;6247606;23;20079;-83
2023/11/30 05:53:58;;;;;;;;;;;;;;;;;;6248589;23;20075;-83
2023/11/30 05:56:24;;;;;;;2.53;1.55;;;;;;;;;;6247409;23;20357;-84
2023/11/30 05:58:50;;;;;;;5.07;2.22;;;;;;;;;;6221153;23;20008;-84
2023/11/30 06:01:17;;;;;;;1.80;1.17;;;;;;;;;;6220054;23;20067;-83
2023/11/30 06:03:43;;;;;;;3.17;1.55;;;;;;;;;;6221050;23;20000;-84
2023/11/30 06:06:10;;;;;;;4.38;1.83;;;;;;;;;;6220490;23;20032;-83
2023/11/30 06:08:36;;;;;;;3.60;2.28;;;;;;;;;;6245666;23;20070;-82
2023/11/30 06:11:01;;;;;;;6.88;1.55;;;;;;;;;;6218511;23;20328;-82
2023/11/30 06:13:27;;;;;;;7.00;2.72;;;;;;;;;;6246125;23;20012;-83
2023/11/30 06:15:54;;;;;;;;;;;;;;;;;;6216646;23;20016;-81
2023/11/30 06:18:20;;;;;;;;;;;;;;;;;;6243532;23;19915;-82
2023/11/30 06:20:46;;;;;;;5.45;1.80;;;;;;;;;;6242598;23;19950;-82
2023/11/30 06:23:12;;;;;;;;;;;;;;;;;;6217107;23;20328;-82
2023/11/30 06:25:38;;;;;;;12.25;1.98;;;;;;;;;;6244097;23;19910;-83
2023/11/30 06:28:04;;;;;;;4.72;2.60;;;;;;;;;;6217264;23;20023;-84
2023/11/30 06:30:30;;;;;;;3.22;2.15;;;;;;;;;;6244533;23;20000;-83
2023/11/30 06:32:56;;;;;;;6.80;1.92;;;;;;;;;;6244624;23;20008;-80
2023/11/30 06:35:22;;;;;;;4.15;1.52;;;;;;;;;;6243071;23;20298;-81
2023/11/30 06:37:48;;;;;;;2.40;1.50;;;;;;;;;;6243484;23;20020;-84
2023/11/30 06:40:14;;;;;;;4.45;1.83;;;;;;;;;;6243006;23;20512;-84
2023/11/30 06:42:40;;;;;;;7.78;2.42;;;;;;;;;;6220417;23;20012;-84
2023/11/30 06:45:07;;;;;;;6.22;2.33;;;;;;;;;;6221300;23;20134;-84
2023/11/30 06:47:33;;;;;;;7.55;3.92;;;;;;;;;;6221576;23;20008;-84
2023/11/30 06:49:59;;;;;;;4.03;2.22;;;;;;;;;;6248678;23;20031;-84
2023/11/30 06:52:25;;;;;;;8.05;3.67;;;;;;;;;;6248751;23;20008;-84
2023/11/30 06:54:51;;;;;;;4.28;2.22;;;;;;;;;;6221091;23;20126;-84
2023/11/30 06:57:17;;;;;;;6.35;2.40;;;;;;;;;;6220829;23;20031;-84
2023/11/30 06:59:43;;;;;;;6.30;1.77;;;;;;;;;;6220682;23;20008;-84
2023/11/30 07:02:10;;;;;;;7.07;4.13;;;;;;;;;;6220166;23;20095;-85
2023/11/30 07:04:36;;;;;;;11.18;3.28;;;;;;;;;;6221158;23;20007;-85
2023/11/30 07:07:02;;;;;;;6.20;2.30;;;;;;;;;;6221130;23;20004;-84
2023/11/30 07:09:28;;;;;;;9.38;2.35;;;;;;;;;;6221405;23;20004;-84
2023/11/30 07:11:54;;;;;;;8.35;2.58;;;;;;;;;;6220881;23;20023;-85
2023/11/30 07:14:21;;;;;;;7.15;2.45;;;;;;;;;;6220663;23;20043;-85
2023/11/30 07:16:47;;;;;;;5.00;2.22;;;;;;;;;;6220851;23;20027;-86
2023/11/30 07:19:13;;;;;;;7.40;1.80;;;;;;;;;;6221256;23;20012;-85
2023/11/30 07:21:40;;;;;;;4.50;1.48;;;;;;;;;;6220211;23;20070;-85
2023/11/30 07:24:06;;;;;;;5.75;1.50;;;;;;;;;;6221030;23;20095;-85
2023/11/30 07:26:32;;;;;;;2.47;1.50;;;;;;;;;;6220158;23;20347;-86
2023/11/30 07:28:58;;;;;;;3.42;1.75;;;;;;;;;;6220263;23;20004;-85
2023/11/30 07:31:24;;;;;;;2.17;1.60;;;;;;;;;;6220536;23;20736;-85
2023/11/30 07:33:53;;;;;;;4.95;1.73;;;;;;;;;;6220265;23;20015;-85
2023/11/30 07:36:19;;;;;;;6.45;1.42;;;;;;;;;;6218737;23;20022;-85
2023/11/30 07:38:45;;;;;;;2.33;1.20;;;;;;;;;;6219479;23;20079;-84
2023/11/30 07:41:11;;;;;;;4.00;1.35;;;;;;;;;;6218982;23;20428;-85
2023/11/30 07:43:37;;;;;;;7.00;2.75;;;;;;;;;;6246897;23;20012;-87
2023/11/30 07:46:03;;;;;;;2.63;1.60;;;;;;;;;;6221025;23;20012;-86
2023/11/30 07:48:30;;;;;;;4.47;1.35;;;;;;;;;;6219601;23;19997;-86
2023/11/30 07:50:56;;;;;;;4.88;1.73;;;;;;;;;;6219429;23;20092;-85
2023/11/30 07:53:23;;;;;;;6.28;2.17;;;;;;;;;;6219341;23;20004;-85
2023/11/30 07:55:54;;;;;;;2.08;1.27;;;;;;;;;;6219347;23;20424;-86
2023/11/30 07:58:21;;;;;;;2.60;1.48;;;;;;;;;;6219413;23;20016;-85
2023/11/30 08:00:47;;;;;;;5.18;1.90;;;;;;;;;;6219030;23;20321;-85
2023/11/30 08:03:13;;;;;;;4.78;3.05;;;;;;;;;;6219358;23;20039;-86
2023/11/30 08:05:39;;;;;;;7.28;2.58;;;;;;;;;;6219917;23;20004;-85
2023/11/30 08:08:05;;;;;;;7.85;2.90;;;;;;;;;;6220090;23;20008;-85
2023/11/30 08:10:33;;;;;;;12.18;3.47;;;;;;;;;;6219452;23;20320;-85
2023/11/30 08:12:59;;;;;;;11.15;4.05;;;;;;;;;;6219535;23;20055;-85
2023/11/30 08:15:25;;;;;;;8.73;2.53;;;;;;;;;;6220327;23;20001;-85
2023/11/30 08:17:52;;;;;;;3.78;1.23;;;;;;;;;;6219864;23;20020;-85
2023/11/30 08:20:18;;;;;;;4.20;2.08;;;;;;;;;;6220699;23;20023;-86
2023/11/30 08:22:44;;;;;;;3.80;1.48;;;;;;;;;;6220228;23;20012;-86
2023/11/30 08:25:11;;;;;;;6.45;2.63;;;;;;;;;;6220689;23;20011;-86
2023/11/30 08:27:37;;;;;;;4.65;1.30;;;;;;;;;;6220086;23;20058;-86
2023/11/30 08:30:04;;;;;;;3.67;1.85;;;;;;;;;;6219993;23;20099;-86
2023/11/30 08:32:30;;;;;;;4.90;1.75;;;;;;;;;;6220181;23;20016;-84
2023/11/30 08:34:56;;;;;;;2.80;1.23;;;;;;;;;;6246601;23;20084;-85
2023/11/30 08:37:22;;;;;;;3.58;1.52;;;;;;;;;;6219838;23;20036;-86
2023/11/30 08:39:48;;;;;;;2.80;1.35;;;;;;;;;;6220422;23;20323;-85
2023/11/30 08:42:14;;;;;;;3.95;1.60;;;;;;;;;;6220290;23;20019;-86
2023/11/30 08:44:41;;;;;;;4.47;1.65;;;;;;;;;;6246725;23;20427;-85
2023/11/30 08:47:07;;;;;;;2.50;1.90;;;;;;;;;;6220012;23;20021;-85
2023/11/30 08:49:33;;;;;;;3.53;1.77;;;;;;;;;;6220262;23;20348;-86
2023/11/30 08:51:59;;;;;;;4.40;1.77;;;;;;;;;;6219973;23;20038;-86
2023/11/30 08:54:25;;;;;;;5.93;1.42;;;;;;;;;;6220412;23;20041;-86
2023/11/30 08:56:52;;;;;;;3.33;1.27;;;;;;;;;;6220275;23;20016;-86
2023/11/30 08:59:18;;;;;;;12.75;2.70;;;;;;;;;;6220325;23;20012;-85
2023/11/30 09:01:44;;;;;;;4.05;1.83;;;;;;;;;;6220331;23;20012;-86
2023/11/30 09:04:10;;;;;;;4.82;1.83;;;;;;;;;;6220038;23;20054;-86
2023/11/30 09:06:36;;;;;;;22.70;1.88;;;;;;;;;;6220019;23;20012;-86
2023/11/30 09:09:03;;;;;;;4.32;1.38;;;;;;;;;;6220488;23;20324;-86
2023/11/30 09:11:30;;;;;;;8.50;1.48;;;;;;;;;;6220030;23;20012;-86
2023/11/30 09:13:59;;;;;;;2.10;0.70;;;;;;;;;;6220433;23;20087;-86
2023/11/30 09:16:26;;;;;;;1.58;0.88;;;;;;;;;;6220298;23;20047;-85
2023/11/30 09:18:54;;;;;;;4.03;1.27;;;;;;;;;;6219926;23;20008;-86
2023/11/30 09:21:21;;;;;;;4.93;1.23;;;;;;;;;;6220151;23;20024;-86
2023/11/30 09:23:47;;;;;;;6.22;1.67;;;;;;;;;;6219801;23;20075;-86
2023/11/30 09:26:13;;;;;;;2.63;1.08;;;;;;;;;;6222067;23;20015;-86
2023/11/30 09:28:39;;;;;;;2.30;0.70;;;;;;;;;;6222048;23;20007;-85
2023/11/30 09:31:06;;;;;;;5.03;1.98;;;;;;;;;;6249173;23;20022;-86
2023/11/30 09:33:32;;;;;;;2.75;0.50;;;;;;;;;;6222625;23;20015;-86
2023/11/30 09:36:02;;;;;;;0.70;0.47;;;;;;;;;;6221836;23;20023;-86
2023/11/30 09:38:28;;;;;;;2.88;0.95;;;;;;;;;;6222287;23;20016;-86
2023/11/30 09:40:55;;;;;;;1.58;0.90;;;;;;;;;;6222130;23;20040;-86
2023/11/30 09:43:21;;;;;;;2.30;0.73;;;;;;;;;;6222454;23;20320;-86
2023/11/30 09:45:47;;;;;;;1.00;0.65;;;;;;;;;;6222073;23;20035;-86
2023/11/30 09:48:14;;;;;;;2.22;1.00;;;;;;;;;;6221809;23;20000;-86
2023/11/30 09:50:40;;;;;;;1.05;0.60;;;;;;;;;;6221487;23;20009;-86
2023/11/30 09:53:08;;;;;;;0.73;0.70;;;;;;;;;;6221952;23;20015;-86
2023/11/30 09:55:35;;;;;;;2.10;1.05;;;;;;;;;;6221972;23;20352;-86
2023/11/30 09:58:03;;;;;;;2.88;1.60;;;;;;;;;;6222105;23;20008;-85
2023/11/30 10:00:29;;;;;;;2.15;0.90;;;;;;;;;;6221892;23;20004;-85
2023/11/30 10:02:59;;;;;;;1.27;0.93;;;;;;;;;;6221743;23;20388;-86
2023/11/30 10:05:26;;;;;;;4.80;0.70;;;;;;;;;;6221695;23;20004;-86
2023/11/30 10:07:52;;;;;;;3.88;0.93;;;;;;;;;;6222169;23;20015;-86
2023/11/30 10:10:18;;;;;;;4.72;0.90;;;;;;;;;;6221846;23;20470;-86
2023/11/30 10:12:44;;;;;;;1.65;0.47;;;;;;;;;;6222019;23;20408;-86
2023/11/30 10:15:10;;;;;;;1.30;0.70;;;;;;;;;;6221930;23;20019;-86
2023/11/30 10:17:37;;;;;;;3.83;1.30;;;;;;;;;;6222146;23;20015;-86
2023/11/30 10:20:05;;;;;;;2.47;1.27;;;;;;;;;;6222149;23;20008;-86
2023/11/30 10:22:32;;;;;;;2.97;1.77;;;;;;;;;;6221487;23;20105;-86
2023/11/30 10:24:58;;;;;;;1.02;0.63;;;;;;;;;;6221957;23;20000;-86
2023/11/30 10:27:29;;;;;;;1.65;0.40;;;;;;;;;;6221786;23;20416;-86
2023/11/30 10:30:01;;;;;;;2.20;1.25;;;;;;;;;;6221365;23;20008;-86
2023/11/30 10:32:31;;;;;;;11.75;3.22;;;;;;;;;;6221428;23;20008;-86
2023/11/30 10:34:57;;;;;;;14.90;6.15;;;;;;;;;;6221644;23;20008;-86
2023/11/30 10:37:26;;;;;;;3.65;1.33;;;;;;;;;;6221742;23;20080;-87
2023/11/30 10:39:55;;;;;;;7.68;2.30;;;;;;;;;;6221410;23;20428;-86
2023/11/30 10:42:23;;;;;;;2.60;1.10;;;;;;;;;;6221312;23;20016;-85
2023/11/30 10:44:50;;;;;;;4.25;1.55;;;;;;;;;;6221338;23;20051;-85
2023/11/30 10:47:17;;;;;;;4.47;0.77;;;;;;;;;;6221590;23;20012;-85
2023/11/30 10:49:43;;;;;;;2.55;1.52;;;;;;;;;;6221382;23;20000;-86
2023/11/30 10:52:10;;;;;;;6.65;1.65;;;;;;;;;;6221700;23;20016;-85
2023/11/30 10:54:59;;;;;;;1.77;1.00;;;;;;;;;;6221547;23;20011;-85
2023/11/30 10:57:25;;;;;;;1.67;0.95;;;;;;;;;;6220845;23;20008;-86
2023/11/30 11:00:05;;;;;;;2.17;1.17;;;;;;;;;;6221514;23;20019;-86
2023/11/30 11:02:45;;;;;;;1.52;0.85;;;;;;;;;;6221179;23;20315;-86
2023/11/30 11:05:14;;;;;;;0.73;0.55;;;;;;;;;;6220854;23;20012;-86
2023/11/30 11:07:47;;;;;;;2.47;1.10;;;;;;;;;;6221089;23;20008;-86
2023/11/30 11:10:24;;;;;;;1.20;0.75;;;;;;;;;;6221477;23;20032;-86
2023/11/30 11:12:50;;;;;;;5.70;1.95;;;;;;;;;;6221166;23;20016;-86
2023/11/30 11:15:19;;;;;;;3.13;1.65;;;;;;;;;;6220596;23;20031;-87
2023/11/30 11:17:55;;;;;;;2.38;0.95;;;;;;;;;;6247854;23;20487;-86
2023/11/30 11:20:26;;;;;;;4.35;1.58;;;;;;;;;;6220119;23;20012;-85
2023/11/30 11:22:55;;;;;;;1.20;1.00;;;;;;;;;;6220372;23;20016;-86
2023/11/30 11:25:22;;;;;;;2.63;1.58;;;;;;;;;;6220181;23;20010;-86
2023/11/30 11:27:48;;;;;;;2.40;1.23;;;;;;;;;;6220805;23;20016;-86
2023/11/30 11:30:15;;;;;;;5.13;1.10;;;;;;;;;;6220444;23;20010;-86
2023/11/30 11:32:42;;;;;;;1.45;1.33;;;;;;;;;;6220431;23;20024;-86
2023/11/30 11:35:10;;;;;;;2.15;1.25;;;;;;;;;;6219927;23;20018;-86
2023/11/30 11:37:36;;;;;;;3.28;0.88;;;;;;;;;;6220123;23;20043;-86
2023/11/30 11:40:03;;;;;;;2.92;1.50;;;;;;;;;;6220658;23;20023;-86
2023/11/30 11:42:32;;;;;;;2.17;0.98;;;;;;;;;;6220490;23;20023;-85
2023/11/30 11:45:04;;;;;;;3.50;1.55;;;;;;;;;;6219861;23;20008;-85
2023/11/30 11:47:32;;;;;;;1.50;0.93;;;;;;;;;;6220152;23;20016;-85
2023/11/30 11:49:58;;;;;;;2.40;0.98;;;;;;;;;;6220060;23;20007;-86
2023/11/30 11:52:25;;;;;;;4.90;0.93;;;;;;;;;;6220209;23;20012;-86
2023/11/30 11:55:00;;;;;;;2.55;0.68;;;;;;;;;;6220755;23;20008;-86
2023/11/30 11:57:36;;;;;;;5.03;1.15;;;;;;;;;;6219919;23;20012;-86
2023/11/30 12:00:03;;;;;;;6.70;2.15;;;;;;;;;;6219826;23;20012;-86
2023/11/30 12:02:30;;;;;;;4.18;1.45;;;;;;;;;;6247442;23;20423;-86
2023/11/30 12:05:05;;;;;;;1.25;0.95;;;;;;;;;;6220174;23;20336;-86
2023/11/30 12:07:34;;;;;;;3.20;0.85;;;;;;;;;;6220806;23;20012;-86
2023/11/30 12:10:03;;;;;;;5.90;1.27;;;;;;;;;;6220818;23;20034;-86
2023/11/30 12:12:36;;;;;;;4.55;1.67;;;;;;;;;;6220741;23;20008;-86
2023/11/30 12:15:02;;;;;;;5.38;1.63;;;;;;;;;;6220565;23;20015;-86
2023/11/30 12:17:28;;;;;;;2.45;1.45;;;;;;;;;;6220407;23;20019;-86
2023/11/30 12:19:54;;;;;;;3.22;1.48;;;;;;;;;;6220366;23;20091;-86
2023/11/30 12:22:20;;;;;;;1.58;0.95;;;;;;;;;;6220401;23;20012;-87
2023/11/30 12:24:47;;;;;;;1.88;0.50;;;;;;;;;;6220817;23;20028;-86
2023/11/30 12:27:13;;;;;;;8.02;2.45;;;;;;;;;;6220807;23;20015;-86
2023/11/30 12:29:39;;;;;;;3.15;2.00;;;;;;;;;;6220179;23;20008;-85
2023/11/30 12:32:05;;;;;;;4.45;1.55;;;;;;;;;;6220208;23;20008;-86
2023/11/30 12:34:31;;;;;;;7.28;3.13;;;;;;;;;;6219638;23;20004;-86
2023/11/30 12:36:57;;;;;;;2.92;0.85;;;;;;;;;;6219607;23;20008;-86
2023/11/30 12:39:23;;;;;;;4.88;1.95;;;;;;;;;;6219664;23;20115;-86
2023/11/30 12:41:49;;;;;;;3.55;1.00;;;;;;;;;;6219485;23;20438;-86
2023/11/30 12:44:16;;;;;;;3.90;2.40;;;;;;;;;;6219437;23;20447;-86
2023/11/30 12:46:43;;;;;;;1.98;0.90;;;;;;;;;;6246436;23;20008;-87
2023/11/30 12:49:09;;;;;;;2.38;1.60;;;;;;;;;;6246547;23;20004;-85
2023/11/30 12:51:35;;;;;;;4.47;1.73;;;;;;;;;;6219463;23;20408;-85
2023/11/30 12:54:03;;;;;;;2.25;1.38;;;;;;;;;;6220243;23;20016;-85
2023/11/30 12:56:30;;;;;;;3.72;1.65;;;;;;;;;;6219274;23;20034;-86
2023/11/30 12:58:56;;;;;;;3.78;1.90;;;;;;;;;;6218270;23;20019;-85
2023/11/30 13:01:22;;;;;;;3.13;2.10;;;;;;;;;;6244818;22;20010;-85
2023/11/30 13:03:48;;;;;;;5.25;2.30;;;;;;;;;;6218443;23;20012;-86
2023/11/30 13:06:14;;;;;;;5.60;2.40;;;;;;;;;;6218312;23;20004;-86
2023/11/30 13:08:41;;;;;;;8.30;1.73;;;;;;;;;;6218561;23;20034;-85
2023/11/30 13:11:07;;;;;;;4.95;2.45;;;;;;;;;;6218775;22;20012;-85
2023/11/30 13:13:33;;;;;;;4.88;3.17;;;;;;;;;;6219597;23;20007;-85
2023/11/30 13:16:01;;;;;;;3.10;1.67;;;;;;;;;;6219444;22;20012;-86
2023/11/30 13:18:29;;;;;;;3.47;1.55;;;;;;;;;;6219652;23;20039;-86
2023/11/30 13:20:55;;;;;;;7.53;2.40;;;;;;;;;;6218705;23;20039;-85
2023/11/30 13:23:22;;;;;;;8.27;2.97;;;;;;;;;;6245157;23;20003;-86
2023/11/30 13:25:48;;;;;;;5.90;3.38;;;;;;;;;;6246398;23;20042;-86
2023/11/30 13:28:14;;;;;;;2.85;1.33;;;;;;;;;;6246459;23;20004;-86
2023/11/30 13:30:41;;;;;;;7.57;3.50;;;;;;;;;;6219106;23;20000;-86
2023/11/30 13:33:07;;;;;;;4.80;2.22;;;;;;;;;;6219500;23;20062;-87
2023/11/30 13:35:34;;;;;;;5.72;2.30;;;;;;;;;;6245537;23;20047;-85
2023/11/30 13:38:01;;;;;;;3.90;1.98;;;;;;;;;;6218102;23;20116;-85
2023/11/30 13:40:27;;;;;;;4.72;1.75;;;;;;;;;;6219043;23;20328;-86
2023/11/30 13:42:53;;;;;;;3.80;2.55;;;;;;;;;;6219768;23;20019;-86
2023/11/30 13:45:23;;;;;;;5.22;2.10;;;;;;;;;;6218802;23;20004;-86
2023/11/30 13:47:50;;;;;;;8.70;2.67;;;;;;;;;;6219074;23;20023;-86
2023/11/30 13:50:17;;;;;;;2.80;1.27;;;;;;;;;;6219066;23;20091;-86
2023/11/30 13:52:44;;;;;;;2.17;1.35;;;;;;;;;;6219593;23;20023;-87
2023/11/30 13:55:10;;;;;;;2.00;1.20;;;;;;;;;;6218995;23;20086;-86
2023/11/30 13:57:38;;;;;;;4.38;1.60;;;;;;;;;;6219362;23;20448;-86
2023/11/30 14:00:09;;;;;;;2.47;1.67;;;;;;;;;;6219411;23;20448;-86
2023/11/30 14:02:39;;;;;;;4.55;1.55;;;;;;;;;;6219242;23;20020;-86
2023/11/30 14:05:09;;;;;;;6.70;3.45;;;;;;;;;;6219775;23;20004;-86
2023/11/30 14:07:35;;;;;;;11.80;1.48;;;;;;;;;;6219924;23;20323;-86
2023/11/30 14:10:01;;;;;;;3.45;1.02;;;;;;;;;;6219860;23;20443;-86
2023/11/30 14:12:28;;;;;;;3.95;2.75;;;;;;;;;;6221899;23;20020;-87
2023/11/30 14:14:54;;;;;;;5.22;2.45;;;;;;;;;;6221686;23;20027;-87
2023/11/30 14:17:21;;;;;;;;;;;;;;;;;;6222329;23;20020;-87
2023/11/30 14:19:47;;;;;;;5.57;1.35;;;;;;;;;;6221993;23;19911;-87
2023/11/30 14:22:14;;;;;;;2.95;1.67;;;;;;;;;;6221328;23;20016;-86
2023/11/30 14:24:40;;;;;;;6.15;1.83;;;;;;;;;;6220773;23;20004;-87
2023/11/30 14:27:06;;;;;;;3.70;1.50;;;;;;;;;;6220200;23;20016;-86
2023/11/30 14:29:32;;;;;;;5.88;1.38;;;;;;;;;;6220731;23;20011;-86
2023/11/30 14:31:58;;;;;;;2.78;1.75;;;;;;;;;;6221133;23;20016;-86
2023/11/30 14:34:24;;;;;;;6.60;3.25;;;;;;;;;;6221389;23;20008;-86
2023/11/30 14:36:53;;;;;;;6.60;3.38;;;;;;;;;;6220733;23;20062;-86
2023/11/30 14:39:24;;;;;;;6.10;2.70;;;;;;;;;;6220625;23;20011;-87
2023/11/30 14:41:50;;;;;;;8.55;3.78;;;;;;;;;;6220548;23;20022;-86
2023/11/30 14:44:16;;;;;;;12.93;4.25;;;;;;;;;;6220342;23;20487;-86
2023/11/30 14:46:42;;;;;;;9.95;5.68;;;;;;;;;;6216210;23;20394;-85
2023/11/30 14:49:08;;;;;;;5.47;2.25;;;;;;;;;;6218219;23;20054;-86
2023/11/30 14:51:40;;;;;;;6.68;2.53;;;;;;;;;;6220654;23;20493;-86
2023/11/30 14:54:06;;;;;;;6.38;2.42;;;;;;;;;;6220448;23;20004;-86
2023/11/30 14:56:32;;;;;;;7.00;2.92;;;;;;;;;;6220455;23;20477;-86
2023/11/30 14:58:59;;;;;;;4.38;2.38;;;;;;;;;;6219574;23;20008;-85
2023/11/30 15:01:26;;;;;;;7.18;3.97;;;;;;;;;;6219137;23;20016;-87
2023/11/30 15:03:52;;;;;;;6.60;3.45;;;;;;;;;;6219601;23;20047;-86
2023/11/30 15:06:18;;;;;;;5.65;3.45;;;;;;;;;;6245525;23;20004;-85